createdAt,value
2019-01-05T00:00:32.162Z,4.20
2019-01-05T00:05:43.756Z,4.03
2019-01-05T00:10:55.523Z,4.07
2019-01-05T00:16:17.621Z,4.07
2019-01-05T00:21:44.421Z,4.19
2019-01-05T00:27:05.599Z,4.21
2019-01-05T00:32:40.950Z,4.24
2019-01-05T00:37:57.882Z,4.06
2019-01-05T00:43:19.493Z,4.17
2019-01-05T00:48:42.475Z,4.26
2019-01-05T00:53:57.826Z,4.18
2019-01-05T00:59:12.939Z,4.23
2019-01-05T01:04:35.303Z,4.13
2019-01-05T01:09:50.394Z,4.29
2019-01-05T01:15:12.423Z,4.17
2019-01-05T01:20:18.466Z,4.07
2019-01-05T01:25:36.943Z,4.31
2019-01-05T01:30:45.951Z,4.20
2019-01-05T01:35:51.948Z,4.33
2019-01-05T01:40:58.197Z,4.24
2019-01-05T01:46:10.957Z,4.28
2019-01-05T01:51:32.519Z,4.45
2019-01-05T01:56:51.882Z,4.28
2019-01-05T02:02:14.711Z,4.45
2019-01-05T02:07:28.491Z,4.27
2019-01-05T02:12:38.966Z,4.35
2019-01-05T02:17:49.601Z,4.28
2019-01-05T02:23:19.944Z,4.18
2019-01-05T02:28:31.583Z,4.25
2019-01-05T02:33:49.677Z,4.17
2019-01-05T02:39:01.426Z,4.34
2019-01-05T02:44:35.080Z,4.42
2019-01-05T02:50:10.634Z,4.48
2019-01-05T02:55:54.186Z,4.61
2019-01-05T03:01:37.961Z,4.57
2019-01-05T03:07:07.962Z,4.48
2019-01-05T03:13:01.100Z,4.70
2019-01-05T03:18:18.543Z,4.62
2019-01-05T03:23:59.956Z,4.66
2019-01-05T03:29:35.956Z,4.61
2019-01-05T03:34:50.776Z,4.49
2019-01-05T03:40:44.011Z,4.64
2019-01-05T03:46:14.534Z,4.52
2019-01-05T03:52:01.674Z,4.56
2019-01-05T03:57:25.215Z,4.45
2019-01-05T04:02:59.922Z,4.55
2019-01-05T04:08:14.775Z,4.68
2019-01-05T04:13:47.951Z,4.69
2019-01-05T04:19:30.312Z,4.64
2019-01-05T04:25:29.261Z,4.51
2019-01-05T04:31:08.626Z,4.78
2019-01-05T04:36:41.596Z,4.80
2019-01-05T04:42:12.803Z,4.82
2019-01-05T04:47:58.196Z,4.69
2019-01-05T04:53:12.989Z,4.79
2019-01-05T04:58:48.826Z,4.86
2019-01-05T05:04:16.295Z,4.85
2019-01-05T05:09:46.497Z,4.93
2019-01-05T05:15:35.066Z,4.95
2019-01-05T05:21:20.111Z,4.99
2019-01-05T05:26:47.062Z,5.06
2019-01-05T05:32:21.612Z,5.16
2019-01-05T05:37:47.327Z,5.13
2019-01-05T05:43:29.794Z,5.04
2019-01-05T05:49:14.628Z,5.16
2019-01-05T05:54:49.674Z,5.12
2019-01-05T06:00:19.574Z,5.29
2019-01-05T06:05:52.918Z,5.14
2019-01-05T06:11:17.127Z,5.21
2019-01-05T06:17:02.869Z,5.27
2019-01-05T06:22:31.366Z,5.35
2019-01-05T06:27:58.273Z,5.35
2019-01-05T06:33:57.323Z,5.31
2019-01-05T06:39:25.987Z,5.28
2019-01-05T06:44:56.022Z,5.37
2019-01-05T06:50:44.219Z,5.36
2019-01-05T06:56:13.059Z,5.32
2019-01-05T07:02:01.663Z,5.30
2019-01-05T07:07:44.142Z,5.36
2019-01-05T07:13:40.046Z,5.49
2019-01-05T07:19:22.845Z,5.55
2019-01-05T07:25:15.364Z,5.66
2019-01-05T07:30:46.842Z,5.68
2019-01-05T07:36:30.267Z,5.71
2019-01-05T07:42:04.954Z,5.74
2019-01-05T07:47:45.519Z,5.81
2019-01-05T07:53:03.430Z,5.78
2019-01-05T07:58:43.494Z,5.81
2019-01-05T08:03:55.402Z,5.61
2019-01-05T08:09:07.410Z,5.67
2019-01-05T08:14:39.159Z,5.57
2019-01-05T08:20:16.884Z,5.68
2019-01-05T08:25:49.846Z,5.67
2019-01-05T08:31:49.202Z,5.75
2019-01-05T08:37:29.824Z,5.72
2019-01-05T08:43:04.850Z,5.87
2019-01-05T08:48:36.278Z,5.80
2019-01-05T08:54:11.562Z,6.00
2019-01-05T09:00:06.393Z,6.04
2019-01-05T09:05:50.510Z,6.23
2019-01-05T09:11:17.489Z,6.26
2019-01-05T09:16:46.294Z,6.39
2019-01-05T09:22:10.343Z,6.45
2019-01-05T09:27:43.625Z,6.32
2019-01-05T09:33:28.920Z,6.64
2019-01-05T09:38:59.193Z,6.58
2019-01-05T09:44:26.753Z,6.65
2019-01-05T09:50:12.059Z,6.65
2019-01-05T09:55:30.143Z,6.57
2019-01-05T10:01:11.108Z,6.73
2019-01-05T10:06:36.605Z,6.79
2019-01-05T10:12:13.722Z,6.80
2019-01-05T10:17:48.192Z,6.89
2019-01-05T10:23:24.341Z,6.86
2019-01-05T10:29:12.213Z,6.86
2019-01-05T10:34:52.324Z,7.01
2019-01-05T10:40:40.779Z,6.95
2019-01-05T10:46:21.631Z,6.99
2019-01-05T10:51:49.089Z,7.07
2019-01-05T10:57:19.876Z,6.92
2019-01-05T11:02:47.100Z,6.91
2019-01-05T11:08:13.627Z,6.99
2019-01-05T11:13:54.091Z,7.05
2019-01-05T11:19:38.602Z,7.13
2019-01-05T11:25:20.709Z,7.13
2019-01-05T11:30:46.724Z,7.24
2019-01-05T11:36:15.267Z,7.35
2019-01-05T11:42:12.472Z,7.27
2019-01-05T11:47:42.174Z,7.48
2019-01-05T11:53:15.212Z,7.40
2019-01-05T11:58:58.741Z,7.37
2019-01-05T12:04:45.810Z,7.65
2019-01-05T12:10:27.087Z,7.59
2019-01-05T12:16:04.627Z,7.67
2019-01-05T12:21:22.722Z,7.57
2019-01-05T12:27:23.631Z,7.57
2019-01-05T12:32:53.081Z,7.84
2019-01-05T12:38:17.166Z,7.60
2019-01-05T12:43:59.771Z,7.40
2019-01-05T12:49:35.706Z,7.51
2019-01-05T12:55:06.991Z,7.69
2019-01-05T13:00:41.470Z,7.62
2019-01-05T13:06:39.374Z,7.68
2019-01-05T13:12:09.464Z,7.76
2019-01-05T13:17:38.113Z,7.62
2019-01-05T13:23:08.104Z,7.47
2019-01-05T13:28:38.458Z,7.44
2019-01-05T13:34:23.722Z,7.54
2019-01-05T13:40:00.172Z,7.53
2019-01-05T13:45:31.994Z,7.47
2019-01-05T13:50:53.289Z,7.49
2019-01-05T13:56:04.747Z,7.46
2019-01-05T14:01:27.166Z,7.54
2019-01-05T14:06:49.850Z,7.51
2019-01-05T14:12:12.164Z,7.55
2019-01-05T14:17:18.148Z,7.52
2019-01-05T14:22:24.162Z,7.58
2019-01-05T14:27:43.490Z,7.56
2019-01-05T14:32:55.750Z,7.58
2019-01-05T14:38:17.081Z,7.52
2019-01-05T14:43:29.000Z,7.63
2019-01-05T14:48:53.104Z,7.52
2019-01-05T14:53:59.124Z,7.61
2019-01-05T14:59:21.277Z,7.48
2019-01-05T15:04:33.034Z,7.52
2019-01-05T15:09:41.440Z,7.48
2019-01-05T15:15:02.798Z,7.49
2019-01-05T15:20:18.207Z,7.63
2019-01-05T15:25:26.884Z,7.80
2019-01-05T15:30:44.858Z,7.58
2019-01-05T15:36:03.216Z,7.38
2019-01-05T15:41:25.681Z,7.34
2019-01-05T15:46:46.821Z,7.05
2019-01-05T15:52:08.077Z,7.01
2019-01-05T15:57:14.085Z,6.93
2019-01-05T16:02:32.245Z,6.87
2019-01-05T16:07:50.045Z,6.89
2019-01-05T16:13:04.882Z,6.88
2019-01-05T16:18:25.949Z,6.87
2019-01-05T16:23:48.341Z,6.86
2019-01-05T16:29:09.547Z,6.96
2019-01-05T16:34:15.545Z,6.83
2019-01-05T16:39:30.572Z,6.81
2019-01-05T16:44:52.939Z,6.73
2019-01-05T16:50:02.340Z,6.81
2019-01-05T16:55:24.782Z,6.87
2019-01-05T17:00:47.079Z,6.76
2019-01-05T17:05:53.090Z,6.98
2019-01-05T17:13:17.590Z,12.66
2019-01-05T17:17:51.325Z,21.67
2019-01-05T17:24:19.487Z,11.75
2019-01-05T17:29:40.662Z,7.33
2019-01-05T17:34:46.669Z,7.06
2019-01-05T17:39:52.685Z,7.17
2019-01-05T17:45:01.448Z,6.82
2019-01-05T17:50:25.348Z,6.93
2019-01-05T17:55:43.740Z,6.85
2019-01-05T18:00:49.752Z,6.74
2019-01-05T18:06:05.562Z,6.67
2019-01-05T18:11:11.766Z,6.64
2019-01-05T18:16:20.711Z,6.56
2019-01-05T18:21:26.727Z,6.53
2019-01-05T18:26:32.785Z,6.52
2019-01-05T18:31:53.540Z,6.56
2019-01-05T18:36:59.549Z,6.47
2019-01-05T18:42:05.495Z,6.29
2019-01-05T18:47:11.549Z,6.20
2019-01-05T18:52:32.570Z,6.22
2019-01-05T18:57:53.838Z,6.11
2019-01-05T19:03:05.963Z,6.08
2019-01-05T19:08:27.841Z,6.03
2019-01-05T19:13:36.968Z,6.01
2019-01-05T19:18:59.336Z,6.00
2019-01-05T19:24:06.400Z,5.92
2019-01-05T19:29:21.433Z,5.88
2019-01-05T19:34:39.483Z,5.94
2019-01-05T19:40:01.398Z,5.86
2019-01-05T19:45:09.173Z,6.01
2019-01-05T19:50:24.241Z,5.88
2019-01-05T19:55:42.496Z,5.85
2019-01-05T20:01:00.524Z,5.81
2019-01-05T20:06:06.513Z,5.79
2019-01-05T20:11:28.700Z,5.83
2019-01-05T20:16:37.726Z,5.78
2019-01-05T20:21:43.751Z,5.62
2019-01-05T20:26:55.686Z,5.70
2019-01-05T20:32:01.679Z,5.70
2019-01-05T20:37:16.779Z,5.67
2019-01-05T20:42:25.548Z,5.61
2019-01-05T20:47:46.284Z,5.49
2019-01-05T20:52:52.297Z,5.39
2019-01-05T20:58:14.907Z,5.41
2019-01-05T21:03:23.791Z,5.31
2019-01-05T21:08:39.080Z,5.22
2019-01-05T21:14:01.527Z,5.15
2019-01-05T21:19:23.802Z,5.13
2019-01-05T21:24:38.833Z,5.11
2019-01-05T21:30:01.080Z,5.29
2019-01-05T21:35:20.043Z,4.93
2019-01-05T21:40:41.404Z,4.64
2019-01-05T21:45:47.485Z,4.62
2019-01-05T21:50:53.525Z,4.54
2019-01-05T21:56:11.459Z,4.66
2019-01-05T22:01:23.195Z,4.33
2019-01-05T22:06:45.075Z,4.41
2019-01-05T22:15:19.121Z,4.33
2019-01-05T22:20:41.521Z,4.28
2019-01-05T22:26:06.299Z,4.36
2019-01-05T22:31:28.419Z,4.33
2019-01-05T22:36:43.364Z,4.29
2019-01-05T22:41:58.583Z,4.31
2019-01-05T22:47:22.802Z,4.35
2019-01-05T22:52:38.066Z,4.33
2019-01-05T22:58:00.366Z,4.30
2019-01-05T23:03:06.412Z,4.21
2019-01-05T23:08:21.612Z,4.19
2019-01-05T23:13:39.444Z,4.32
2019-01-05T23:18:45.576Z,4.28
2019-01-05T23:23:51.997Z,4.28
2019-01-05T23:28:57.983Z,4.26
2019-01-05T23:34:13.068Z,4.13
2019-01-05T23:39:19.097Z,4.09
2019-01-05T23:44:36.986Z,4.28
2019-01-05T23:49:45.755Z,3.87
2019-01-05T23:54:51.836Z,3.23
2019-01-05T23:59:57.894Z,3.22
